createdAt,value
2023-05-12T00:00:45.223Z,101431.49
2023-05-12T00:03:16.720Z,101428.04
2023-05-12T00:05:47.460Z,101425.35
2023-05-12T00:08:18.094Z,101423.33
2023-05-12T00:10:48.898Z,101422.30
2023-05-12T00:13:23.908Z,101423.18
2023-05-12T00:15:56.937Z,101423.64
2023-05-12T00:18:28.834Z,101422.89
2023-05-12T00:20:59.662Z,101424.91
2023-05-12T00:23:30.434Z,101426.27
2023-05-12T00:26:01.272Z,101429.31
2023-05-12T00:28:32.004Z,101427.71
2023-05-12T00:31:04.994Z,101432.19
2023-05-12T00:33:35.802Z,101428.56
2023-05-12T00:36:07.090Z,101428.23
2023-05-12T00:38:38.215Z,101424.73
2023-05-12T00:41:08.801Z,101422.61
2023-05-12T00:43:39.507Z,101426.19
2023-05-12T00:46:10.243Z,101424.67
2023-05-12T00:48:41.005Z,101425.92
2023-05-12T00:51:14.544Z,101430.05
2023-05-12T00:53:49.863Z,101434.90
2023-05-12T00:56:21.969Z,101433.55
2023-05-12T00:58:52.874Z,101433.34
2023-05-12T01:01:24.118Z,101431.33
2023-05-12T01:03:55.152Z,101439.42
2023-05-12T01:06:26.950Z,101438.36
2023-05-12T01:08:57.612Z,101439.09
2023-05-12T01:11:28.100Z,101441.55
2023-05-12T01:13:58.926Z,101442.07
2023-05-12T01:16:30.686Z,101441.72
2023-05-12T01:19:01.336Z,101443.08
2023-05-12T01:21:32.205Z,101439.41
2023-05-12T01:24:03.689Z,101439.80
2023-05-12T01:26:34.591Z,101447.15
2023-05-12T01:29:05.805Z,101447.62
2023-05-12T01:31:36.488Z,101444.63
2023-05-12T01:34:07.271Z,101446.09
2023-05-12T01:36:38.020Z,101444.63
2023-05-12T01:39:08.860Z,101445.95
2023-05-12T01:41:39.686Z,101440.86
2023-05-12T01:44:10.722Z,101442.11
2023-05-12T01:46:41.599Z,101440.19
2023-05-12T01:49:12.386Z,101437.83
2023-05-12T01:51:43.128Z,101436.48
2023-05-12T01:54:13.839Z,101433.98
2023-05-12T01:56:44.432Z,101437.16
2023-05-12T01:59:15.214Z,101437.11
2023-05-12T02:01:46.001Z,101435.75
2023-05-12T02:04:16.810Z,101436.83
2023-05-12T02:06:47.677Z,101432.84
2023-05-12T02:09:18.289Z,101434.50
2023-05-12T02:11:48.932Z,101431.95
2023-05-12T02:14:19.787Z,101434.21
2023-05-12T02:16:52.992Z,101432.92
2023-05-12T02:19:23.851Z,101428.67
2023-05-12T02:21:54.945Z,101427.67
2023-05-12T02:24:25.798Z,101429.50
2023-05-12T02:26:56.539Z,101435.61
2023-05-12T02:29:27.253Z,101433.32
2023-05-12T02:31:58.094Z,101438.30
2023-05-12T02:34:28.820Z,101441.60
2023-05-12T02:36:59.935Z,101436.59
2023-05-12T02:39:30.613Z,101435.70
2023-05-12T02:42:01.476Z,101442.46
2023-05-12T02:44:32.192Z,101446.98
2023-05-12T02:47:02.922Z,101450.52
2023-05-12T02:49:33.736Z,101449.83
2023-05-12T02:52:04.552Z,101449.99
2023-05-12T02:54:35.385Z,101456.27
2023-05-12T02:57:07.619Z,101459.77
2023-05-12T02:59:38.198Z,101464.16
2023-05-12T03:02:08.995Z,101464.26
2023-05-12T03:04:39.848Z,101470.89
2023-05-12T03:07:10.526Z,101467.27
2023-05-12T03:09:41.266Z,101471.79
2023-05-12T03:12:12.224Z,101468.52
2023-05-12T03:14:43.007Z,101471.15
2023-05-12T03:17:13.843Z,101471.05
2023-05-12T03:19:44.632Z,101469.48
2023-05-12T03:22:15.488Z,101470.05
2023-05-12T03:24:46.715Z,101469.89
2023-05-12T03:27:17.350Z,101472.31
2023-05-12T03:29:48.105Z,101476.41
2023-05-12T03:32:18.721Z,101476.33
2023-05-12T03:34:49.575Z,101476.30
2023-05-12T03:37:20.491Z,101479.27
2023-05-12T03:39:51.072Z,101483.64
2023-05-12T03:42:22.016Z,101487.09
2023-05-12T03:44:53.100Z,101487.02
2023-05-12T03:47:24.078Z,101489.23
2023-05-12T03:49:54.830Z,101486.04
2023-05-12T03:52:25.522Z,101490.98
2023-05-12T03:54:56.620Z,101488.82
2023-05-12T03:57:27.293Z,101491.77
2023-05-12T03:59:57.908Z,101493.17
2023-05-12T04:02:28.621Z,101495.94
2023-05-12T04:04:59.357Z,101494.76
2023-05-12T04:07:30.085Z,101497.58
2023-05-12T04:10:00.803Z,101496.99
2023-05-12T04:12:31.518Z,101499.21
2023-05-12T04:15:03.046Z,101501.67
2023-05-12T04:17:33.683Z,101503.05
2023-05-12T04:20:04.497Z,101503.87
2023-05-12T04:22:35.156Z,101500.92
2023-05-12T04:25:06.146Z,101499.23
2023-05-12T04:27:36.731Z,101501.82
2023-05-12T04:30:08.574Z,101499.92
2023-05-12T04:32:39.306Z,101497.83
2023-05-12T04:35:10.514Z,101498.16
2023-05-12T04:37:41.206Z,101495.05
2023-05-12T04:40:12.319Z,101493.91
2023-05-12T04:42:43.139Z,101492.08
2023-05-12T04:45:14.158Z,101496.80
2023-05-12T04:47:44.716Z,101498.17
2023-05-12T04:50:15.790Z,101498.58
2023-05-12T04:52:46.804Z,101497.58
2023-05-12T04:55:17.530Z,101496.79
2023-05-12T04:57:48.214Z,101495.92
2023-05-12T05:00:18.957Z,101503.96
2023-05-12T05:02:49.722Z,101502.71
2023-05-12T05:05:20.748Z,101506.08
2023-05-12T05:07:51.530Z,101509.55
2023-05-12T05:10:22.235Z,101511.54
2023-05-12T05:12:52.850Z,101512.23
2023-05-12T05:15:23.836Z,101511.34
2023-05-12T05:17:54.607Z,101510.65
2023-05-12T05:20:28.912Z,101513.66
2023-05-12T05:23:00.063Z,101516.69
2023-05-12T05:25:30.874Z,101516.82
2023-05-12T05:28:01.547Z,101516.48
2023-05-12T05:30:32.185Z,101519.36
2023-05-12T05:33:03.058Z,101524.26
2023-05-12T05:35:33.825Z,101525.45
2023-05-12T05:38:04.692Z,101525.73
2023-05-12T05:40:45.442Z,101526.65
2023-05-12T05:43:19.942Z,101534.55
2023-05-12T05:45:50.769Z,101531.30
2023-05-12T05:48:21.909Z,101528.30
2023-05-12T05:50:52.860Z,101531.86
2023-05-12T05:53:23.603Z,101532.53
2023-05-12T05:55:54.400Z,101536.25
2023-05-12T05:58:25.177Z,101533.67
2023-05-12T06:00:55.831Z,101530.30
2023-05-12T06:03:26.931Z,101532.52
2023-05-12T06:05:57.744Z,101536.01
2023-05-12T06:08:28.379Z,101542.35
2023-05-12T06:10:59.154Z,101540.89
2023-05-12T06:13:29.890Z,101546.30
2023-05-12T06:16:00.730Z,101548.85
2023-05-12T06:18:33.912Z,101547.04
2023-05-12T06:21:04.785Z,101548.79
2023-05-12T06:23:35.661Z,101547.90
2023-05-12T06:26:07.858Z,101549.80
2023-05-12T06:28:38.554Z,101550.90
2023-05-12T06:31:09.916Z,101556.16
2023-05-12T06:33:40.532Z,101554.38
2023-05-12T06:36:12.557Z,101550.36
2023-05-12T06:38:43.289Z,101554.07
2023-05-12T06:41:13.938Z,101557.58
2023-05-12T06:43:44.713Z,101555.40
2023-05-12T06:46:15.817Z,101559.02
2023-05-12T06:48:46.524Z,101557.05
2023-05-12T06:51:17.188Z,101561.27
2023-05-12T06:53:47.943Z,101563.52
2023-05-12T06:56:18.714Z,101562.89
2023-05-12T06:58:49.366Z,101564.50
2023-05-12T07:01:20.157Z,101560.10
2023-05-12T07:03:51.885Z,101560.05
2023-05-12T07:06:22.654Z,101563.44
2023-05-12T07:08:53.371Z,101565.48
2023-05-12T07:11:24.148Z,101564.33
2023-05-12T07:13:54.849Z,101562.65
2023-05-12T07:16:25.531Z,101562.30
2023-05-12T07:18:56.534Z,101559.68
2023-05-12T07:21:27.456Z,101563.77
2023-05-12T07:23:58.107Z,101562.77
2023-05-12T07:26:29.584Z,101561.07
2023-05-12T07:29:01.142Z,101564.47
2023-05-12T07:31:33.867Z,101564.91
2023-05-12T07:34:04.804Z,101566.69
2023-05-12T07:36:35.668Z,101566.19
2023-05-12T07:39:06.344Z,101564.70
2023-05-12T07:41:39.192Z,101568.40
2023-05-12T07:44:09.757Z,101567.81
2023-05-12T07:46:41.732Z,101566.45
2023-05-12T07:49:13.451Z,101564.70
2023-05-12T07:51:44.151Z,101567.04
2023-05-12T07:54:14.908Z,101563.75
2023-05-12T07:56:45.776Z,101562.45
2023-05-12T07:59:16.551Z,101561.95
2023-05-12T08:01:47.261Z,101564.45
2023-05-12T08:04:18.089Z,101559.00
2023-05-12T08:06:48.752Z,101560.10
2023-05-12T08:09:19.405Z,101558.85
2023-05-12T08:11:51.828Z,101561.58
2023-05-12T08:14:23.114Z,101560.34
2023-05-12T08:16:54.010Z,101559.15
2023-05-12T08:19:24.583Z,101559.25
2023-05-12T08:21:55.431Z,101558.73
2023-05-12T08:24:26.181Z,101558.96
2023-05-12T08:26:56.968Z,101561.45
2023-05-12T08:29:27.695Z,101559.33
2023-05-12T08:31:58.755Z,101558.77
2023-05-12T08:34:29.449Z,101559.42
2023-05-12T08:37:00.075Z,101557.67
2023-05-12T08:39:31.566Z,101560.27
2023-05-12T08:42:09.459Z,101555.44
2023-05-12T08:44:40.125Z,101558.10
2023-05-12T08:47:11.014Z,101563.48
2023-05-12T08:49:41.742Z,101560.27
2023-05-12T08:52:12.758Z,101558.52
2023-05-12T08:54:55.089Z,101556.48
2023-05-12T08:57:29.457Z,101557.88
2023-05-12T09:00:00.593Z,101552.48
2023-05-12T09:02:44.668Z,101550.09
2023-05-12T09:05:19.837Z,101551.16
2023-05-12T09:07:51.006Z,101548.90
2023-05-12T09:10:34.481Z,101543.85
2023-05-12T09:13:15.947Z,101543.23
2023-05-12T09:15:46.975Z,101541.42
2023-05-12T09:18:17.610Z,101541.29
2023-05-12T09:20:48.221Z,101542.01
2023-05-12T09:23:22.319Z,101544.31
2023-05-12T09:26:02.519Z,101538.48
2023-05-12T09:28:44.206Z,101535.21
2023-05-12T09:31:18.721Z,101537.06
2023-05-12T09:33:49.655Z,101538.02
2023-05-12T09:36:21.383Z,101531.00
2023-05-12T09:39:04.653Z,101526.98
2023-05-12T09:41:37.836Z,101530.75
2023-05-12T09:44:08.920Z,101525.98
2023-05-12T09:46:41.062Z,101527.80
2023-05-12T09:49:11.894Z,101526.05
2023-05-12T09:51:42.651Z,101524.27
2023-05-12T09:54:14.095Z,101527.94
2023-05-12T09:56:44.851Z,101526.16
2023-05-12T09:59:15.564Z,101527.02
2023-05-12T10:01:46.326Z,101529.89
2023-05-12T10:04:17.348Z,101528.91
2023-05-12T10:06:48.001Z,101530.10
2023-05-12T10:09:20.790Z,101524.25
2023-05-12T10:11:53.815Z,101531.16
2023-05-12T10:14:25.058Z,101530.23
2023-05-12T10:16:56.073Z,101531.66
2023-05-12T10:19:26.945Z,101525.81
2023-05-12T10:21:57.716Z,101522.13
2023-05-12T10:24:29.264Z,101523.02
2023-05-12T10:26:59.940Z,101523.70
2023-05-12T10:29:33.016Z,101520.48
2023-05-12T10:32:04.154Z,101520.85
2023-05-12T10:34:35.836Z,101521.51
2023-05-12T10:37:08.682Z,101519.20
2023-05-12T10:39:39.785Z,101519.73
2023-05-12T10:42:10.885Z,101521.44
2023-05-12T10:44:50.646Z,101522.63
2023-05-12T10:47:22.870Z,101521.52
2023-05-12T10:49:56.696Z,101519.69
2023-05-12T10:52:27.283Z,101518.27
2023-05-12T10:55:02.780Z,101519.39
2023-05-12T10:57:34.536Z,101519.66
2023-05-12T11:00:06.086Z,101517.19
2023-05-12T11:02:38.508Z,101518.81
2023-05-12T11:05:13.505Z,101515.95
2023-05-12T11:07:48.258Z,101512.72
2023-05-12T11:10:19.711Z,101514.54
2023-05-12T11:12:50.711Z,101511.97
2023-05-12T11:15:21.826Z,101515.52
2023-05-12T11:17:52.887Z,101512.92
2023-05-12T11:20:29.479Z,101505.66
2023-05-12T11:23:01.639Z,101508.39
2023-05-12T11:25:32.227Z,101508.23
2023-05-12T11:28:03.597Z,101508.23
2023-05-12T11:30:34.548Z,101502.55
2023-05-12T11:33:05.333Z,101499.96
2023-05-12T11:35:36.152Z,101498.60
2023-05-12T11:38:15.688Z,101496.77
2023-05-12T11:40:46.735Z,101495.80
2023-05-12T11:43:21.166Z,101489.41
2023-05-12T11:45:52.283Z,101492.77
2023-05-12T11:48:23.574Z,101494.62
2023-05-12T11:50:57.157Z,101494.05
2023-05-12T11:53:28.107Z,101497.86
2023-05-12T11:55:59.370Z,101496.48
2023-05-12T11:58:30.909Z,101489.19
2023-05-12T12:01:09.732Z,101489.95
2023-05-12T12:03:48.825Z,101491.39
2023-05-12T12:06:19.811Z,101491.42
2023-05-12T12:08:53.882Z,101486.08
2023-05-12T12:11:26.891Z,101484.43
2023-05-12T12:13:58.605Z,101487.41
2023-05-12T12:16:29.843Z,101485.27
2023-05-12T12:19:00.767Z,101483.02
2023-05-12T12:21:31.490Z,101482.27
2023-05-12T12:24:02.245Z,101484.61
2023-05-12T12:26:34.455Z,101479.55
2023-05-12T12:29:05.326Z,101480.65
2023-05-12T12:31:36.683Z,101480.21
2023-05-12T12:34:07.502Z,101477.53
2023-05-12T12:36:38.370Z,101475.25
2023-05-12T12:39:10.625Z,101470.65
2023-05-12T12:41:41.467Z,101464.21
2023-05-12T12:44:12.132Z,101460.71
2023-05-12T12:46:42.767Z,101458.09
2023-05-12T12:49:13.536Z,101461.77
2023-05-12T12:51:46.776Z,101458.50
2023-05-12T12:54:18.179Z,101457.52
2023-05-12T12:56:48.906Z,101457.40
2023-05-12T12:59:19.649Z,101459.46
2023-05-12T13:01:50.344Z,101456.14
2023-05-12T13:04:23.230Z,101454.19
2023-05-12T13:06:54.011Z,101453.93
2023-05-12T13:09:24.726Z,101452.27
2023-05-12T13:11:55.441Z,101446.16
2023-05-12T13:14:26.300Z,101441.02
2023-05-12T13:16:57.050Z,101442.53
2023-05-12T13:19:27.830Z,101441.43
2023-05-12T13:21:59.082Z,101440.21
2023-05-12T13:24:29.893Z,101441.84
2023-05-12T13:27:00.673Z,101438.33
2023-05-12T13:29:31.544Z,101440.41
2023-05-12T13:32:02.852Z,101436.98
2023-05-12T13:34:33.703Z,101438.16
2023-05-12T13:37:04.531Z,101435.42
2023-05-12T13:39:38.090Z,101434.13
2023-05-12T13:42:09.166Z,101432.77
2023-05-12T13:44:40.001Z,101429.10
2023-05-12T13:47:11.953Z,101427.55
2023-05-12T13:49:42.795Z,101423.98
2023-05-12T13:52:13.575Z,101423.83
2023-05-12T13:54:44.350Z,101426.86
2023-05-12T13:57:15.186Z,101426.84
2023-05-12T13:59:45.912Z,101429.61
2023-05-12T14:02:16.825Z,101429.41
2023-05-12T14:04:47.553Z,101431.36
2023-05-12T14:07:18.795Z,101429.77
2023-05-12T14:09:50.059Z,101429.50
2023-05-12T14:12:20.855Z,101424.27
2023-05-12T14:14:52.331Z,101424.71
2023-05-12T14:17:23.105Z,101423.98
2023-05-12T14:19:54.025Z,101429.59
2023-05-12T14:22:26.426Z,101430.50
2023-05-12T14:24:57.924Z,101430.36
2023-05-12T14:27:29.211Z,101428.98
2023-05-12T14:30:00.010Z,101424.81
2023-05-12T14:32:30.993Z,101422.78
2023-05-12T14:35:02.183Z,101425.14
2023-05-12T14:37:34.103Z,101424.69
2023-05-12T14:40:05.398Z,101427.14
2023-05-12T14:42:36.407Z,101428.24
2023-05-12T14:45:08.135Z,101425.34
2023-05-12T14:47:39.884Z,101424.86
2023-05-12T14:50:11.838Z,101426.05
2023-05-12T14:52:42.560Z,101426.01
2023-05-12T14:55:13.825Z,101422.81
2023-05-12T14:57:45.305Z,101421.12
2023-05-12T15:00:16.666Z,101423.48
2023-05-12T15:02:47.521Z,101422.14
2023-05-12T15:05:18.385Z,101421.45
2023-05-12T15:07:49.009Z,101424.41
2023-05-12T15:10:19.715Z,101422.26
2023-05-12T15:12:51.703Z,101420.01
2023-05-12T15:15:24.025Z,101418.55
2023-05-12T15:17:54.830Z,101413.25
2023-05-12T15:20:26.308Z,101411.16
2023-05-12T15:22:58.981Z,101408.34
2023-05-12T15:25:29.863Z,101414.63
2023-05-12T15:28:00.704Z,101412.51
2023-05-12T15:30:32.226Z,101412.51
2023-05-12T15:33:06.219Z,101412.76
2023-05-12T15:35:37.413Z,101406.70
2023-05-12T15:38:08.493Z,101406.71
2023-05-12T15:40:40.356Z,101409.06
2023-05-12T15:43:11.137Z,101407.09
2023-05-12T15:45:41.954Z,101405.59
2023-05-12T15:48:12.953Z,101407.42
2023-05-12T15:50:44.780Z,101403.38
2023-05-12T15:53:15.797Z,101405.38
2023-05-12T15:55:46.749Z,101399.81
2023-05-12T15:58:19.715Z,101401.09
2023-05-12T16:00:50.406Z,101399.59
2023-05-12T16:03:21.168Z,101403.73
2023-05-12T16:05:52.118Z,101405.90
2023-05-12T16:08:24.148Z,101409.45
2023-05-12T16:10:54.746Z,101412.42
2023-05-12T16:13:25.374Z,101413.77
2023-05-12T16:15:56.072Z,101413.30
2023-05-12T16:18:26.759Z,101414.00
2023-05-12T16:20:57.909Z,101413.60
2023-05-12T16:23:28.630Z,101412.17
2023-05-12T16:25:59.477Z,101416.11
2023-05-12T16:28:30.240Z,101411.49
2023-05-12T16:31:01.434Z,101415.48
2023-05-12T16:33:32.184Z,101418.27
2023-05-12T16:36:02.867Z,101417.58
2023-05-12T16:38:34.909Z,101418.84
2023-05-12T16:41:08.802Z,101416.82
2023-05-12T16:43:41.666Z,101414.91
2023-05-12T16:46:12.335Z,101415.17
2023-05-12T16:48:43.369Z,101420.43
2023-05-12T16:51:14.238Z,101421.32
2023-05-12T16:53:47.323Z,101419.34
2023-05-12T16:56:18.182Z,101417.41
2023-05-12T16:58:48.827Z,101416.96
2023-05-12T17:01:19.616Z,101416.09
2023-05-12T17:03:50.830Z,101414.25
2023-05-12T17:06:22.196Z,101416.94
2023-05-12T17:08:54.934Z,101416.08
2023-05-12T17:16:45.952Z,101419.83
2023-05-12T17:19:16.569Z,101418.30
2023-05-12T17:21:55.669Z,101420.10
2023-05-12T17:24:27.991Z,101423.48
2023-05-12T17:26:59.667Z,101423.63
2023-05-12T17:29:31.808Z,101422.48
2023-05-12T17:32:06.014Z,101425.24
2023-05-12T17:34:37.348Z,101424.19
2023-05-12T17:37:08.558Z,101425.70
2023-05-12T17:39:42.099Z,101429.40
2023-05-12T17:42:14.575Z,101429.44
2023-05-12T17:44:45.380Z,101424.84
2023-05-12T17:47:16.797Z,101426.54
2023-05-12T17:49:50.264Z,101432.11
2023-05-12T17:52:21.051Z,101431.34
2023-05-12T17:54:52.568Z,101428.48
2023-05-12T17:57:23.264Z,101432.16
2023-05-12T17:59:54.324Z,101430.45
2023-05-12T18:02:25.359Z,101430.89
2023-05-12T18:04:56.216Z,101433.19
2023-05-12T18:07:27.520Z,101432.90
2023-05-12T18:09:58.131Z,101431.98
2023-05-12T18:12:30.353Z,101433.52
2023-05-12T18:15:01.109Z,101432.58
2023-05-12T18:17:34.756Z,101428.78
2023-05-12T18:20:06.867Z,101433.42
2023-05-12T18:22:37.632Z,101432.83
2023-05-12T18:25:10.133Z,101438.27
2023-05-12T18:27:40.944Z,101436.02
2023-05-12T18:30:14.120Z,101443.02
2023-05-12T18:32:49.968Z,101445.67
2023-05-12T18:35:29.168Z,101449.88
2023-05-12T18:37:59.964Z,101448.99
2023-05-12T18:40:32.316Z,101450.77
2023-05-12T18:43:03.271Z,101449.13
2023-05-12T18:45:33.978Z,101451.75
2023-05-12T18:48:08.735Z,101452.83
2023-05-12T18:50:39.990Z,101457.08
2023-05-12T18:53:10.985Z,101458.83
2023-05-12T18:55:41.640Z,101460.70
2023-05-12T18:58:12.450Z,101457.03
2023-05-12T19:00:43.257Z,101460.27
2023-05-12T19:03:13.962Z,101460.73
2023-05-12T19:05:46.459Z,101460.38
2023-05-12T19:08:19.204Z,101458.95
2023-05-12T19:10:50.349Z,101460.46
2023-05-12T19:13:21.066Z,101457.04
2023-05-12T19:15:51.721Z,101461.06
2023-05-12T19:18:23.367Z,101462.98
2023-05-12T19:20:54.100Z,101460.36
2023-05-12T19:23:25.670Z,101462.27
2023-05-12T19:25:56.438Z,101461.48
2023-05-12T19:28:27.273Z,101460.76
2023-05-12T19:30:58.110Z,101455.05
2023-05-12T19:33:29.485Z,101455.33
2023-05-12T19:36:00.229Z,101456.99
2023-05-12T19:38:33.259Z,101456.98
2023-05-12T19:41:04.071Z,101456.50
2023-05-12T19:43:34.880Z,101456.06
2023-05-12T19:46:05.721Z,101461.13
2023-05-12T19:48:36.499Z,101461.33
2023-05-12T19:51:07.178Z,101461.05
2023-05-12T19:53:37.895Z,101464.00
2023-05-12T19:56:08.556Z,101464.58
2023-05-12T19:58:39.646Z,101461.64
2023-05-12T20:01:10.391Z,101461.93
2023-05-12T20:03:41.360Z,101463.77
2023-05-12T20:06:12.048Z,101465.01
2023-05-12T20:08:42.842Z,101465.59
2023-05-12T20:11:13.667Z,101459.19
2023-05-12T20:13:46.838Z,101460.16
2023-05-12T20:16:17.599Z,101456.07
2023-05-12T20:18:48.242Z,101452.52
2023-05-12T20:21:19.100Z,101456.98
2023-05-12T20:23:49.931Z,101454.83
2023-05-12T20:26:20.815Z,101458.80
2023-05-12T20:28:51.648Z,101458.89
2023-05-12T20:31:23.053Z,101460.98
2023-05-12T20:33:55.149Z,101463.23
2023-05-12T20:36:25.798Z,101467.61
2023-05-12T20:38:56.585Z,101463.76
2023-05-12T20:41:28.041Z,101461.48
2023-05-12T20:43:58.669Z,101460.98
2023-05-12T20:46:30.474Z,101457.67
2023-05-12T20:49:01.121Z,101451.80
2023-05-12T20:51:32.650Z,101452.19
2023-05-12T20:54:03.333Z,101456.23
2023-05-12T20:56:34.041Z,101456.86
2023-05-12T20:59:04.814Z,101455.92
2023-05-12T21:01:35.370Z,101458.64
2023-05-12T21:04:06.342Z,101456.71
2023-05-12T21:06:37.342Z,101460.50
2023-05-12T21:09:08.170Z,101456.85
2023-05-12T21:11:38.874Z,101454.64
2023-05-12T21:14:09.621Z,101454.75
2023-05-12T21:16:40.452Z,101455.46
2023-05-12T21:19:11.326Z,101454.80
2023-05-12T21:21:42.068Z,101452.65
2023-05-12T21:24:12.798Z,101453.77
2023-05-12T21:26:43.881Z,101450.64
2023-05-12T21:29:14.975Z,101443.45
2023-05-12T21:31:47.509Z,101442.55
2023-05-12T21:34:18.316Z,101440.48
2023-05-12T21:36:49.062Z,101445.80
2023-05-12T21:39:19.824Z,101444.54
2023-05-12T21:41:50.559Z,101448.60
2023-05-12T21:44:21.317Z,101448.56
2023-05-12T21:46:52.038Z,101448.25
2023-05-12T21:49:22.788Z,101445.36
2023-05-12T21:51:53.888Z,101441.54
2023-05-12T21:54:24.670Z,101441.42
2023-05-12T21:56:55.389Z,101446.76
2023-05-12T21:59:26.244Z,101447.77
2023-05-12T22:01:57.050Z,101446.89
2023-05-12T22:04:27.932Z,101445.27
2023-05-12T22:06:58.701Z,101443.39
2023-05-12T22:09:31.209Z,101436.84
2023-05-12T22:12:02.106Z,101435.89
2023-05-12T22:14:32.816Z,101434.77
2023-05-12T22:17:03.634Z,101440.61
2023-05-12T22:19:34.355Z,101446.31
2023-05-12T22:22:05.174Z,101446.31
2023-05-12T22:24:35.857Z,101447.73
2023-05-12T22:27:06.978Z,101448.66
2023-05-12T22:29:37.848Z,101443.48
2023-05-12T22:32:08.722Z,101444.45
2023-05-12T22:34:39.423Z,101444.35
2023-05-12T22:37:10.138Z,101448.21
2023-05-12T22:39:40.907Z,101444.19
2023-05-12T22:42:11.655Z,101441.73
2023-05-12T22:44:42.354Z,101440.65
2023-05-12T22:47:13.060Z,101442.59
2023-05-12T22:49:43.840Z,101446.95
2023-05-12T22:52:14.474Z,101445.94
2023-05-12T22:54:45.122Z,101447.44
2023-05-12T22:57:15.877Z,101450.39
2023-05-12T22:59:46.437Z,101451.73
2023-05-12T23:02:17.599Z,101447.97
2023-05-12T23:04:48.365Z,101446.79
2023-05-12T23:07:19.056Z,101445.87
2023-05-12T23:09:49.693Z,101441.98
2023-05-12T23:12:20.660Z,101441.07
2023-05-12T23:14:51.685Z,101440.66
2023-05-12T23:17:22.405Z,101436.48
2023-05-12T23:19:53.600Z,101431.39
2023-05-12T23:22:24.087Z,101426.72
2023-05-12T23:24:55.053Z,101422.96
2023-05-12T23:27:25.616Z,101424.52
2023-05-12T23:29:56.412Z,101417.89
2023-05-12T23:32:27.335Z,101421.02
2023-05-12T23:34:58.420Z,101416.15
2023-05-12T23:37:29.220Z,101416.48
2023-05-12T23:40:00.046Z,101417.38
2023-05-12T23:42:30.679Z,101418.29
2023-05-12T23:45:01.348Z,101414.52
2023-05-12T23:47:32.155Z,101414.58
2023-05-12T23:50:03.530Z,101411.59
2023-05-12T23:52:34.282Z,101408.35
2023-05-12T23:55:05.204Z,101406.21
2023-05-12T23:57:35.895Z,101409.73
